createdAt,value
2018-07-31T00:00:34.143Z,64.11
2018-07-31T00:01:40.000Z,64.28
2018-07-31T00:02:46.204Z,64.43
2018-07-31T00:03:51.399Z,64.05
2018-07-31T00:04:58.697Z,64.19
2018-07-31T00:06:05.126Z,64.91
2018-07-31T00:07:11.114Z,65.16
2018-07-31T00:08:15.909Z,65.11
2018-07-31T00:09:20.806Z,64.76
2018-07-31T00:10:26.594Z,65.39
2018-07-31T00:11:32.152Z,64.70
2018-07-31T00:12:37.144Z,64.48
2018-07-31T00:13:43.353Z,64.82
2018-07-31T00:14:48.141Z,64.56
2018-07-31T00:15:53.484Z,64.86
2018-07-31T00:16:58.332Z,64.82
2018-07-31T00:18:03.252Z,64.36
2018-07-31T00:19:08.977Z,64.61
2018-07-31T00:20:14.764Z,64.58
2018-07-31T00:21:20.051Z,64.44
2018-07-31T00:22:24.831Z,64.36
2018-07-31T00:23:30.516Z,64.14
2018-07-31T00:24:36.354Z,63.99
2018-07-31T00:25:41.182Z,63.95
2018-07-31T00:26:46.334Z,63.92
2018-07-31T00:27:51.287Z,64.04
2018-07-31T00:28:56.762Z,64.37
2018-07-31T00:30:01.691Z,64.93
2018-07-31T00:31:08.235Z,65.07
2018-07-31T00:32:13.141Z,64.80
2018-07-31T00:33:20.555Z,64.85
2018-07-31T00:34:25.428Z,65.25
2018-07-31T00:35:30.348Z,65.55
2018-07-31T00:36:35.365Z,66.15
2018-07-31T00:37:40.267Z,66.06
2018-07-31T00:38:45.232Z,66.47
2018-07-31T00:39:50.552Z,66.48
2018-07-31T00:40:57.059Z,66.79
2018-07-31T00:42:04.849Z,66.38
2018-07-31T00:43:09.607Z,66.20
2018-07-31T00:44:15.102Z,66.10
2018-07-31T00:45:20.607Z,66.33
2018-07-31T00:46:25.863Z,66.15
2018-07-31T00:47:30.720Z,65.90
2018-07-31T00:48:35.603Z,65.63
2018-07-31T00:49:41.304Z,65.43
2018-07-31T00:50:46.225Z,65.72
2018-07-31T00:51:51.157Z,65.78
2018-07-31T00:53:02.490Z,66.36
2018-07-31T00:54:07.398Z,66.26
2018-07-31T00:55:12.341Z,65.52
2018-07-31T00:56:17.209Z,66.17
2018-07-31T00:57:22.163Z,65.89
2018-07-31T00:58:27.008Z,66.30
2018-07-31T00:59:32.385Z,67.12
2018-07-31T01:00:37.285Z,67.68
2018-07-31T01:01:42.221Z,68.43
2018-07-31T01:02:47.091Z,68.18
2018-07-31T01:03:52.060Z,68.26
2018-07-31T01:04:57.044Z,68.51
2018-07-31T01:06:03.531Z,67.88
2018-07-31T01:07:08.479Z,68.11
2018-07-31T01:08:13.483Z,68.18
2018-07-31T01:09:19.082Z,67.42
2018-07-31T01:10:25.003Z,67.30
2018-07-31T01:11:29.872Z,67.18
2018-07-31T01:12:35.846Z,67.22
2018-07-31T01:13:41.310Z,67.44
2018-07-31T01:14:46.188Z,67.25
2018-07-31T01:15:51.138Z,67.41
2018-07-31T01:16:56.058Z,67.34
2018-07-31T01:18:00.947Z,67.14
2018-07-31T01:19:06.375Z,67.17
2018-07-31T01:20:11.358Z,67.93
2018-07-31T01:21:16.322Z,68.15
2018-07-31T01:22:21.232Z,68.23
2018-07-31T01:23:26.162Z,68.73
2018-07-31T01:24:31.056Z,68.44
2018-07-31T01:25:36.589Z,68.60
2018-07-31T01:26:41.493Z,68.75
2018-07-31T01:27:46.407Z,68.90
2018-07-31T01:28:51.527Z,68.46
2018-07-31T01:29:57.118Z,68.75
2018-07-31T01:31:03.291Z,68.12
2018-07-31T01:32:09.262Z,68.82
2018-07-31T01:33:15.090Z,68.61
2018-07-31T01:34:19.876Z,68.27
2018-07-31T01:35:24.721Z,68.68
2018-07-31T01:36:29.506Z,68.58
2018-07-31T01:37:34.545Z,68.97
2018-07-31T01:38:39.751Z,68.13
2018-07-31T01:39:45.533Z,68.93
2018-07-31T01:40:57.636Z,68.68
2018-07-31T01:42:03.395Z,68.94
2018-07-31T01:43:09.270Z,69.10
2018-07-31T01:44:14.190Z,68.38
2018-07-31T01:45:20.669Z,68.81
2018-07-31T01:46:26.084Z,68.98
2018-07-31T01:47:32.329Z,68.20
2018-07-31T01:48:37.176Z,68.23
2018-07-31T01:49:41.986Z,68.31
2018-07-31T01:50:46.872Z,68.50
2018-07-31T01:51:52.353Z,68.53
2018-07-31T01:52:57.196Z,68.64
2018-07-31T01:54:02.650Z,68.95
2018-07-31T01:55:07.566Z,69.01
2018-07-31T01:56:12.619Z,69.10
2018-07-31T01:57:17.554Z,68.67
2018-07-31T01:58:24.047Z,69.24
2018-07-31T01:59:30.421Z,68.59
2018-07-31T02:00:35.430Z,68.98
2018-07-31T02:01:40.348Z,68.33
2018-07-31T02:02:46.345Z,69.15
2018-07-31T02:03:51.310Z,69.32
2018-07-31T02:04:56.735Z,69.03
2018-07-31T02:06:02.565Z,69.46
2018-07-31T02:07:07.550Z,69.25
2018-07-31T02:08:12.477Z,69.76
2018-07-31T02:09:17.525Z,69.24
2018-07-31T02:10:22.456Z,69.72
2018-07-31T02:11:28.438Z,69.87
2018-07-31T02:12:33.356Z,70.87
2018-07-31T02:13:38.325Z,70.07
2018-07-31T02:14:43.256Z,69.51
2018-07-31T02:15:48.336Z,69.04
2018-07-31T02:16:53.332Z,69.40
2018-07-31T02:17:58.570Z,68.95
2018-07-31T02:19:03.457Z,69.43
2018-07-31T02:20:08.426Z,69.06
2018-07-31T02:21:13.309Z,68.52
2018-07-31T02:22:19.068Z,69.01
2018-07-31T02:23:24.018Z,68.84
2018-07-31T02:24:29.317Z,69.07
2018-07-31T02:25:34.324Z,69.03
2018-07-31T02:26:39.292Z,69.36
2018-07-31T02:27:44.352Z,69.99
2018-07-31T02:28:49.306Z,70.05
2018-07-31T02:29:59.607Z,69.58
2018-07-31T02:31:04.552Z,68.98
2018-07-31T02:32:09.461Z,69.76
2018-07-31T02:33:14.262Z,70.09
2018-07-31T02:34:19.070Z,69.81
2018-07-31T02:35:23.877Z,69.48
2018-07-31T02:36:29.207Z,70.41
2018-07-31T02:37:34.035Z,70.02
2018-07-31T02:38:38.858Z,70.39
2018-07-31T02:39:43.682Z,70.71
2018-07-31T02:40:48.467Z,71.00
2018-07-31T02:41:53.445Z,71.79
2018-07-31T02:42:58.877Z,71.85
2018-07-31T02:44:03.831Z,72.02
2018-07-31T02:45:10.021Z,72.73
2018-07-31T02:46:15.477Z,73.25
2018-07-31T02:47:20.412Z,72.94
2018-07-31T02:48:25.309Z,72.75
2018-07-31T02:49:30.725Z,72.21
2018-07-31T02:50:35.646Z,72.78
2018-07-31T02:51:40.666Z,72.16
2018-07-31T02:52:45.744Z,72.14
2018-07-31T02:53:50.697Z,71.80
2018-07-31T02:54:55.532Z,71.61
2018-07-31T02:56:00.793Z,71.80
2018-07-31T02:57:05.673Z,71.00
2018-07-31T02:58:10.666Z,70.88
2018-07-31T02:59:15.597Z,71.26
2018-07-31T03:00:20.420Z,71.35
2018-07-31T03:01:25.262Z,70.95
2018-07-31T03:02:30.474Z,71.29
2018-07-31T03:03:35.323Z,71.67
2018-07-31T03:04:40.114Z,71.94
2018-07-31T03:05:44.981Z,71.62
2018-07-31T03:06:50.641Z,71.63
2018-07-31T03:07:56.403Z,71.49
2018-07-31T03:09:01.669Z,71.66
2018-07-31T03:10:07.714Z,71.79
2018-07-31T03:11:13.940Z,71.03
2018-07-31T03:12:19.569Z,71.45
2018-07-31T03:13:24.304Z,72.17
2018-07-31T03:14:29.130Z,71.68
2018-07-31T03:15:34.250Z,71.60
2018-07-31T03:16:40.168Z,71.46
2018-07-31T03:17:44.900Z,71.09
2018-07-31T03:18:49.670Z,71.35
2018-07-31T03:19:54.723Z,71.05
2018-07-31T03:21:00.488Z,70.89
2018-07-31T03:22:05.655Z,71.45
2018-07-31T03:23:10.629Z,71.47
2018-07-31T03:24:15.425Z,71.26
2018-07-31T03:25:20.217Z,70.91
2018-07-31T03:26:25.025Z,71.78
2018-07-31T03:27:31.057Z,71.57
2018-07-31T03:28:36.462Z,71.99
2018-07-31T03:29:41.339Z,71.51
2018-07-31T03:30:46.248Z,71.89
2018-07-31T03:31:51.236Z,71.24
2018-07-31T03:32:56.391Z,71.73
2018-07-31T03:34:01.182Z,71.69
2018-07-31T03:50:28.358Z,72.03
2018-07-31T03:51:33.141Z,71.35
2018-07-31T03:52:37.909Z,72.01
2018-07-31T03:53:42.669Z,71.80
2018-07-31T03:54:47.477Z,71.76
2018-07-31T03:55:55.846Z,72.03
2018-07-31T03:57:00.605Z,71.59
2018-07-31T03:58:06.378Z,72.26
2018-07-31T03:59:13.042Z,71.94
2018-07-31T04:00:18.862Z,72.18
2018-07-31T04:01:23.713Z,72.75
2018-07-31T04:02:28.910Z,73.34
2018-07-31T04:03:33.787Z,73.68
2018-07-31T04:04:39.836Z,73.67
2018-07-31T04:05:45.227Z,73.60
2018-07-31T04:06:50.008Z,73.74
2018-07-31T04:07:55.773Z,73.74
2018-07-31T04:09:01.012Z,73.92
2018-07-31T04:10:06.003Z,73.21
2018-07-31T04:11:10.802Z,73.64
2018-07-31T04:12:15.532Z,72.83
2018-07-31T04:13:21.554Z,73.13
2018-07-31T04:14:27.274Z,73.41
2018-07-31T04:15:32.722Z,72.94
2018-07-31T04:16:37.777Z,73.39
2018-07-31T04:17:50.142Z,72.85
2018-07-31T04:18:56.002Z,72.92
2018-07-31T04:20:00.913Z,73.14
2018-07-31T04:21:05.771Z,72.93
2018-07-31T04:22:11.074Z,72.50
2018-07-31T04:23:15.977Z,72.19
2018-07-31T04:24:21.699Z,71.70
2018-07-31T04:25:27.794Z,71.77
2018-07-31T04:26:32.726Z,71.67
2018-07-31T04:27:37.596Z,71.36
2018-07-31T04:28:42.459Z,71.80
2018-07-31T04:29:47.580Z,71.79
2018-07-31T04:30:52.470Z,71.46
2018-07-31T04:31:57.338Z,71.87
2018-07-31T04:33:02.860Z,71.79
2018-07-31T04:34:10.041Z,71.94
2018-07-31T04:35:16.511Z,72.01
2018-07-31T04:36:21.634Z,72.02
2018-07-31T04:37:26.519Z,72.21
2018-07-31T04:38:32.736Z,72.27
2018-07-31T04:39:39.012Z,72.94
2018-07-31T04:40:43.771Z,73.13
2018-07-31T04:41:49.397Z,73.14
2018-07-31T04:42:54.139Z,73.03
2018-07-31T04:43:58.902Z,72.98
2018-07-31T04:45:04.358Z,73.49
2018-07-31T04:46:09.647Z,73.68
2018-07-31T04:47:15.298Z,73.54
2018-07-31T04:48:20.096Z,72.60
2018-07-31T04:49:26.654Z,73.00
2018-07-31T04:50:31.549Z,72.95
2018-07-31T04:51:36.413Z,73.54
2018-07-31T04:52:41.775Z,73.57
2018-07-31T04:53:46.604Z,73.66
2018-07-31T04:54:51.509Z,73.47
2018-07-31T04:55:56.498Z,73.70
2018-07-31T04:57:01.356Z,73.93
2018-07-31T04:58:06.258Z,74.24
2018-07-31T04:59:11.608Z,73.83
2018-07-31T05:00:17.231Z,74.95
2018-07-31T05:01:22.082Z,74.16
2018-07-31T05:02:26.895Z,74.49
2018-07-31T05:03:31.675Z,74.56
2018-07-31T05:04:37.366Z,73.83
2018-07-31T05:05:43.867Z,73.91
2018-07-31T05:06:48.622Z,73.58
2018-07-31T05:07:53.520Z,73.94
2018-07-31T05:08:58.277Z,73.63
2018-07-31T05:10:03.038Z,74.27
2018-07-31T05:11:11.452Z,74.49
2018-07-31T05:12:16.769Z,73.59
2018-07-31T05:13:21.531Z,74.11
2018-07-31T05:14:26.344Z,73.86
2018-07-31T05:15:31.110Z,73.88
2018-07-31T05:16:35.992Z,74.00
2018-07-31T05:17:41.410Z,74.17
2018-07-31T05:18:48.851Z,74.39
2018-07-31T05:19:54.212Z,73.78
2018-07-31T05:20:59.521Z,74.44
2018-07-31T05:22:04.492Z,74.03
2018-07-31T05:23:09.521Z,74.03
2018-07-31T05:24:14.581Z,74.31
2018-07-31T05:25:20.190Z,73.89
2018-07-31T05:26:25.524Z,74.28
2018-07-31T05:27:31.605Z,73.88
2018-07-31T05:28:37.469Z,73.51
2018-07-31T05:29:43.548Z,74.01
2018-07-31T05:30:48.930Z,73.53
2018-07-31T05:31:53.887Z,73.33
2018-07-31T05:32:58.837Z,73.58
2018-07-31T05:34:03.673Z,73.86
2018-07-31T05:35:09.322Z,73.77
2018-07-31T05:36:14.283Z,73.60
2018-07-31T05:37:19.674Z,73.57
2018-07-31T05:38:24.606Z,73.72
2018-07-31T05:39:29.608Z,73.34
2018-07-31T05:40:34.567Z,73.21
2018-07-31T05:41:39.560Z,73.42
2018-07-31T05:42:44.582Z,73.02
2018-07-31T05:43:49.904Z,72.47
2018-07-31T05:44:54.817Z,71.75
2018-07-31T05:46:00.472Z,72.00
2018-07-31T05:47:05.394Z,71.86
2018-07-31T05:48:10.690Z,72.22
2018-07-31T05:49:15.625Z,72.08
2018-07-31T05:50:21.180Z,71.77
2018-07-31T05:51:26.191Z,71.02
2018-07-31T05:52:31.126Z,71.67
2018-07-31T05:53:36.065Z,70.92
2018-07-31T05:54:41.178Z,70.74
2018-07-31T05:55:46.197Z,71.31
2018-07-31T05:56:51.746Z,71.38
2018-07-31T05:57:56.797Z,71.46
2018-07-31T05:59:01.746Z,71.51
2018-07-31T06:00:07.243Z,70.94
2018-07-31T06:01:12.582Z,71.02
2018-07-31T06:02:17.836Z,71.24
2018-07-31T06:03:23.715Z,70.21
2018-07-31T06:04:30.832Z,70.18
2018-07-31T06:05:35.757Z,71.51
2018-07-31T06:06:40.638Z,70.85
2018-07-31T06:07:45.630Z,71.03
2018-07-31T06:08:50.514Z,71.37
2018-07-31T06:09:55.758Z,71.06
2018-07-31T06:11:00.636Z,71.13
2018-07-31T06:12:05.678Z,70.66
2018-07-31T06:13:10.598Z,71.05
2018-07-31T06:14:15.501Z,70.43
2018-07-31T06:15:20.754Z,70.92
2018-07-31T06:16:26.734Z,70.12
2018-07-31T06:17:31.535Z,69.58
2018-07-31T06:18:36.352Z,69.24
2018-07-31T06:19:43.121Z,69.36
2018-07-31T06:20:47.955Z,69.34
2018-07-31T06:21:53.179Z,69.40
2018-07-31T06:22:58.452Z,69.65
2018-07-31T06:24:05.275Z,69.37
2018-07-31T06:25:10.720Z,69.65
2018-07-31T06:26:15.645Z,68.91
2018-07-31T06:27:21.084Z,69.61
2018-07-31T06:28:26.006Z,68.72
2018-07-31T06:29:32.145Z,68.54
2018-07-31T06:30:36.938Z,68.41
2018-07-31T06:31:41.762Z,68.14
2018-07-31T06:32:46.633Z,68.37
2018-07-31T06:33:53.316Z,68.03
2018-07-31T06:34:58.210Z,67.67
2018-07-31T06:36:05.411Z,68.00
2018-07-31T06:37:10.860Z,67.63
2018-07-31T06:38:15.607Z,67.36
2018-07-31T06:39:20.340Z,67.25
2018-07-31T06:40:25.187Z,67.29
2018-07-31T06:41:30.036Z,67.11
2018-07-31T06:42:37.151Z,66.75
2018-07-31T06:43:41.912Z,66.50
2018-07-31T06:44:46.799Z,66.67
2018-07-31T06:45:51.617Z,66.21
2018-07-31T06:46:57.381Z,66.61
2018-07-31T06:48:03.274Z,66.00
2018-07-31T06:49:08.913Z,65.76
2018-07-31T06:50:14.984Z,65.32
2018-07-31T06:51:19.785Z,65.16
2018-07-31T06:53:28.006Z,64.56
2018-07-31T06:54:32.781Z,64.17
2018-07-31T06:55:37.922Z,63.97
2018-07-31T06:56:43.418Z,63.47
2018-07-31T06:57:48.642Z,63.63
2018-07-31T06:58:54.516Z,63.55
2018-07-31T06:59:59.354Z,63.34
2018-07-31T07:01:04.604Z,63.00
2018-07-31T07:02:09.477Z,62.80
2018-07-31T07:03:14.390Z,62.79
2018-07-31T07:04:19.223Z,62.72
2018-07-31T07:05:24.109Z,62.37
2018-07-31T07:06:29.244Z,62.58
2018-07-31T07:07:35.254Z,62.13
2018-07-31T07:08:40.736Z,62.12
2018-07-31T07:09:46.518Z,61.94
2018-07-31T07:10:51.432Z,61.72
2018-07-31T07:11:56.333Z,61.49
2018-07-31T07:13:02.168Z,61.00
2018-07-31T07:14:07.441Z,60.92
2018-07-31T07:15:14.121Z,60.44
2018-07-31T07:16:19.214Z,60.30
2018-07-31T07:17:24.081Z,59.52
2018-07-31T07:18:31.832Z,59.17
2018-07-31T07:19:37.792Z,58.70
2018-07-31T07:20:42.554Z,59.07
2018-07-31T07:21:47.468Z,58.46
2018-07-31T07:22:53.254Z,58.52
2018-07-31T07:23:58.716Z,58.29
2018-07-31T07:25:04.358Z,58.12
2018-07-31T07:26:09.676Z,57.50
2018-07-31T07:27:15.134Z,57.53
2018-07-31T07:28:20.056Z,57.48
2018-07-31T07:29:24.922Z,57.50
2018-07-31T07:30:29.862Z,57.13
2018-07-31T07:31:36.015Z,56.60
2018-07-31T07:32:42.739Z,56.89
2018-07-31T07:33:48.135Z,56.33
2018-07-31T07:34:52.912Z,55.59
2018-07-31T07:35:57.728Z,55.91
2018-07-31T07:37:03.387Z,55.84
2018-07-31T07:38:08.883Z,55.75
2018-07-31T07:39:15.075Z,55.40
2018-07-31T07:40:20.090Z,54.87
2018-07-31T07:41:26.853Z,54.73
2018-07-31T07:42:33.624Z,54.41
2018-07-31T07:43:38.589Z,54.73
2018-07-31T07:44:44.398Z,54.04
2018-07-31T07:45:50.431Z,53.93
2018-07-31T07:46:55.290Z,54.00
2018-07-31T07:48:00.211Z,53.94
2018-07-31T07:49:05.663Z,54.08
2018-07-31T07:50:10.530Z,53.97
2018-07-31T07:51:15.456Z,53.98
2018-07-31T07:52:20.438Z,53.08
2018-07-31T07:53:25.368Z,53.05
2018-07-31T07:54:31.204Z,53.18
2018-07-31T07:55:36.216Z,52.81
2018-07-31T07:56:42.859Z,52.82
2018-07-31T07:57:50.433Z,52.21
2018-07-31T07:58:57.637Z,51.78
2018-07-31T08:00:02.499Z,52.04
2018-07-31T08:01:07.445Z,51.68
2018-07-31T08:02:12.239Z,51.57
2018-07-31T08:03:17.541Z,51.47
2018-07-31T08:04:25.678Z,51.21
2018-07-31T08:05:30.706Z,50.92
2018-07-31T08:06:35.508Z,50.42
2018-07-31T08:07:41.117Z,50.01
2018-07-31T08:08:46.547Z,49.94
2018-07-31T08:09:52.799Z,49.72
2018-07-31T08:11:01.219Z,50.04
2018-07-31T08:12:06.632Z,49.88
2018-07-31T08:13:12.691Z,49.65
2018-07-31T08:14:19.235Z,49.94
2018-07-31T08:15:23.987Z,50.00
2018-07-31T08:16:32.111Z,49.88
2018-07-31T08:17:38.082Z,49.30
2018-07-31T08:18:43.786Z,49.28
2018-07-31T08:19:48.581Z,49.20
2018-07-31T08:20:54.411Z,48.98
2018-07-31T08:22:00.398Z,49.19
2018-07-31T08:23:07.154Z,49.47
2018-07-31T08:24:13.043Z,48.90
2018-07-31T08:25:18.884Z,49.22
2018-07-31T08:26:23.675Z,48.97
2018-07-31T08:27:29.130Z,48.97
2018-07-31T08:28:34.825Z,49.19
2018-07-31T08:29:40.414Z,48.62
2018-07-31T08:30:45.182Z,48.81
2018-07-31T08:31:50.561Z,48.70
2018-07-31T08:32:59.837Z,48.08
2018-07-31T08:34:04.687Z,48.32
2018-07-31T08:35:09.462Z,47.95
2018-07-31T08:36:14.751Z,47.73
2018-07-31T08:37:19.658Z,47.59
2018-07-31T08:38:26.633Z,47.38
2018-07-31T08:39:32.392Z,47.13
2018-07-31T08:40:38.114Z,47.03
2018-07-31T08:41:43.619Z,46.84
2018-07-31T08:42:49.157Z,46.35
2018-07-31T08:43:53.963Z,46.41
2018-07-31T08:44:58.676Z,46.21
2018-07-31T08:46:03.991Z,46.22
2018-07-31T08:47:08.827Z,45.81
2018-07-31T08:48:14.640Z,45.22
2018-07-31T08:49:19.699Z,45.64
2018-07-31T08:50:24.595Z,45.76
2018-07-31T08:51:29.932Z,45.38
2018-07-31T08:52:34.785Z,45.40
2018-07-31T08:53:39.551Z,45.77
2018-07-31T08:54:44.371Z,44.96
2018-07-31T08:55:50.744Z,44.10
2018-07-31T08:56:55.907Z,43.79
2018-07-31T08:58:04.720Z,43.86
2018-07-31T08:59:10.009Z,43.63
2018-07-31T09:00:15.231Z,43.17
2018-07-31T09:01:23.163Z,42.97
2018-07-31T09:02:28.268Z,42.68
2018-07-31T09:03:33.085Z,42.34
2018-07-31T09:04:38.894Z,42.56
2018-07-31T09:05:43.932Z,42.07
2018-07-31T09:06:48.941Z,42.05
2018-07-31T09:07:54.584Z,41.64
2018-07-31T09:09:01.781Z,41.77
2018-07-31T09:10:08.058Z,41.51
2018-07-31T09:11:13.040Z,41.35
2018-07-31T09:12:18.168Z,41.10
2018-07-31T09:13:23.207Z,41.13
2018-07-31T09:14:29.558Z,41.01
2018-07-31T09:15:35.829Z,40.85
2018-07-31T09:16:40.746Z,40.72
2018-07-31T09:17:45.638Z,40.61
2018-07-31T09:18:50.537Z,40.63
2018-07-31T09:19:55.464Z,40.34
2018-07-31T09:21:00.815Z,39.86
2018-07-31T09:22:05.714Z,40.35
2018-07-31T09:23:11.624Z,40.40
2018-07-31T09:24:16.531Z,39.98
2018-07-31T09:25:22.037Z,39.93
2018-07-31T09:26:27.602Z,39.90
2018-07-31T09:27:35.029Z,40.03
2018-07-31T09:28:39.902Z,39.93
2018-07-31T09:29:45.839Z,39.71
2018-07-31T09:30:55.915Z,39.42
2018-07-31T09:32:01.680Z,39.63
2018-07-31T09:33:09.528Z,39.30
2018-07-31T09:34:15.707Z,39.72
2018-07-31T09:35:21.155Z,39.46
2018-07-31T09:36:26.279Z,39.30
2018-07-31T09:37:31.480Z,39.44
2018-07-31T09:38:36.393Z,39.38
2018-07-31T09:39:43.827Z,39.42
2018-07-31T09:40:49.990Z,39.07
2018-07-31T09:41:55.652Z,39.29
2018-07-31T09:43:02.852Z,38.72
2018-07-31T09:44:10.387Z,39.03
2018-07-31T09:45:16.545Z,38.56
2018-07-31T09:46:21.486Z,38.08
2018-07-31T09:47:26.731Z,38.21
2018-07-31T09:48:32.336Z,38.36
2018-07-31T10:05:58.844Z,36.93
2018-07-31T10:07:05.642Z,36.72
2018-07-31T10:08:11.289Z,36.72
2018-07-31T10:09:17.946Z,36.95
2018-07-31T10:10:23.549Z,36.93
2018-07-31T10:11:30.212Z,36.85
2018-07-31T10:12:36.229Z,36.63
2018-07-31T10:13:41.176Z,36.38
2018-07-31T10:14:46.148Z,36.91
2018-07-31T10:15:51.421Z,36.69
2018-07-31T10:16:56.918Z,36.78
2018-07-31T10:18:02.496Z,36.89
2018-07-31T10:19:16.300Z,36.83
2018-07-31T10:20:23.050Z,35.67
2018-07-31T10:21:33.422Z,35.85
2018-07-31T10:22:38.790Z,36.15
2018-07-31T10:23:45.366Z,35.43
2018-07-31T10:24:53.611Z,35.88
2018-07-31T10:26:01.331Z,35.39
2018-07-31T10:27:07.219Z,35.37
2018-07-31T10:28:13.111Z,35.28
2018-07-31T10:29:18.535Z,35.56
2018-07-31T10:30:23.507Z,34.76
2018-07-31T10:31:28.848Z,34.79
2018-07-31T10:32:35.278Z,34.06
2018-07-31T10:33:41.111Z,33.99
2018-07-31T10:34:45.933Z,34.45
2018-07-31T10:35:50.770Z,34.29
2018-07-31T10:36:55.681Z,33.86
2018-07-31T10:38:03.175Z,33.63
2018-07-31T10:39:08.705Z,33.29
2018-07-31T10:40:13.659Z,33.36
2018-07-31T10:41:19.485Z,33.75
2018-07-31T10:42:24.584Z,33.20
2018-07-31T10:43:29.587Z,33.07
2018-07-31T10:44:35.829Z,32.79
2018-07-31T10:45:42.249Z,33.50
2018-07-31T10:46:48.594Z,33.50
2018-07-31T10:47:54.377Z,33.79
2018-07-31T10:48:59.411Z,33.83
2018-07-31T10:50:04.435Z,33.37
2018-07-31T10:51:09.822Z,33.73
2018-07-31T10:52:15.709Z,33.40
2018-07-31T10:53:21.357Z,33.37
2018-07-31T10:54:26.286Z,33.25
2018-07-31T10:55:32.932Z,33.38
2018-07-31T10:56:39.655Z,32.62
2018-07-31T10:57:45.664Z,32.82
2018-07-31T10:58:50.553Z,32.52
2018-07-31T10:59:58.551Z,32.26
2018-07-31T11:01:03.784Z,32.78
2018-07-31T11:02:09.368Z,32.40
2018-07-31T11:03:16.006Z,32.43
2018-07-31T11:04:21.945Z,32.58
2018-07-31T11:05:28.134Z,32.35
2018-07-31T11:06:33.911Z,32.65
2018-07-31T11:07:40.494Z,32.49
2018-07-31T11:08:45.344Z,33.17
2018-07-31T11:09:50.314Z,33.14
2018-07-31T11:10:55.535Z,32.90
2018-07-31T11:12:00.401Z,33.56
2018-07-31T11:13:06.803Z,33.26
2018-07-31T11:14:11.634Z,33.26
2018-07-31T11:15:16.548Z,33.31
2018-07-31T11:16:21.309Z,32.89
2018-07-31T11:17:31.109Z,32.73
2018-07-31T11:18:35.873Z,32.32
2018-07-31T11:19:41.841Z,31.74
2018-07-31T11:20:47.439Z,31.77
2018-07-31T11:21:53.290Z,31.31
2018-07-31T11:22:58.306Z,31.84
2018-07-31T11:24:03.784Z,31.41
2018-07-31T11:25:10.928Z,31.50
2018-07-31T11:26:16.476Z,31.71
2018-07-31T11:27:22.299Z,31.47
2018-07-31T11:28:27.173Z,31.51
2018-07-31T11:29:33.276Z,31.62
2018-07-31T11:30:38.683Z,31.35
2018-07-31T11:31:45.270Z,31.06
2018-07-31T11:32:51.490Z,30.63
2018-07-31T11:33:57.354Z,31.13
2018-07-31T11:35:02.956Z,30.73
2018-07-31T11:36:07.919Z,30.32
2018-07-31T11:37:13.147Z,29.92
2018-07-31T11:38:21.332Z,30.30
2018-07-31T11:39:26.253Z,30.45
2018-07-31T11:40:31.239Z,30.60
2018-07-31T11:41:38.348Z,30.70
2018-07-31T11:42:45.114Z,30.59
2018-07-31T11:43:53.487Z,30.63
2018-07-31T11:44:58.492Z,31.26
2018-07-31T11:46:05.272Z,32.01
2018-07-31T11:47:12.474Z,32.75
2018-07-31T11:48:17.363Z,32.80
2018-07-31T11:49:22.356Z,32.16
2018-07-31T11:50:28.530Z,32.03
2018-07-31T11:51:33.558Z,30.99
2018-07-31T11:52:39.006Z,30.95
2018-07-31T11:53:43.967Z,30.23
2018-07-31T11:54:49.893Z,30.45
2018-07-31T11:55:56.587Z,100.00
2018-07-31T11:57:02.857Z,100.00
2018-07-31T11:58:09.865Z,32.88
2018-07-31T11:59:14.807Z,32.90
2018-07-31T12:00:21.380Z,33.45
2018-07-31T12:01:28.377Z,100.00
2018-07-31T12:02:34.320Z,32.96
2018-07-31T12:03:40.380Z,33.05
2018-07-31T12:04:45.331Z,32.64
2018-07-31T12:05:50.309Z,32.61
2018-07-31T12:06:55.256Z,32.55
2018-07-31T12:08:02.493Z,32.40
2018-07-31T12:09:09.787Z,32.40
2018-07-31T12:10:15.901Z,0.00
2018-07-31T12:11:21.554Z,32.43
2018-07-31T12:12:26.761Z,32.74
2018-07-31T12:13:31.853Z,32.78
2018-07-31T12:14:37.381Z,100.00
2018-07-31T12:15:42.396Z,32.80
2018-07-31T12:16:47.713Z,32.30
2018-07-31T12:17:52.595Z,32.28
2018-07-31T12:19:00.899Z,31.39
2018-07-31T12:20:08.059Z,31.72
2018-07-31T12:21:13.821Z,30.89
2018-07-31T12:22:19.593Z,31.10
2018-07-31T12:23:24.839Z,31.40
2018-07-31T12:24:37.307Z,30.11
2018-07-31T12:25:42.218Z,77.60
2018-07-31T12:26:47.298Z,100.00
2018-07-31T12:27:52.265Z,31.59
2018-07-31T12:28:57.177Z,32.25
2018-07-31T12:30:02.408Z,32.04
2018-07-31T12:31:09.079Z,100.00
2018-07-31T12:33:18.218Z,30.56
2018-07-31T12:34:24.409Z,30.85
2018-07-31T12:35:33.454Z,31.03
2018-07-31T12:36:38.334Z,30.85
2018-07-31T12:37:43.441Z,30.55
2018-07-31T12:38:48.594Z,30.49
2018-07-31T12:39:54.937Z,30.87
2018-07-31T12:41:00.735Z,31.27
2018-07-31T12:42:07.723Z,31.48
2018-07-31T12:43:12.573Z,30.83
2018-07-31T12:44:18.585Z,30.50
2018-07-31T12:45:25.241Z,30.93
2018-07-31T12:46:31.644Z,30.33
2018-07-31T12:47:40.349Z,30.11
2018-07-31T12:48:46.414Z,30.45
2018-07-31T12:49:51.642Z,30.79
2018-07-31T12:51:12.524Z,30.35
2018-07-31T12:52:20.353Z,30.01
2018-07-31T12:53:26.494Z,30.02
2018-07-31T12:54:33.846Z,29.31
2018-07-31T12:55:40.612Z,29.40
2018-07-31T12:56:49.499Z,29.54
2018-07-31T12:57:55.408Z,29.42
2018-07-31T12:59:01.925Z,28.96
2018-07-31T13:00:06.941Z,28.69
2018-07-31T13:01:12.561Z,28.02
2018-07-31T13:02:18.502Z,27.93
2018-07-31T13:03:23.492Z,28.31
2018-07-31T13:04:28.451Z,29.48
2018-07-31T13:05:34.861Z,30.04
2018-07-31T13:06:44.628Z,29.90
2018-07-31T13:07:49.804Z,29.45
2018-07-31T13:08:55.454Z,29.29
2018-07-31T13:10:00.459Z,29.18
2018-07-31T13:11:05.368Z,28.17
2018-07-31T13:12:11.304Z,28.79
2018-07-31T13:13:18.040Z,29.31
2018-07-31T13:14:23.093Z,29.79
2018-07-31T13:15:28.850Z,30.22
2018-07-31T13:16:34.765Z,30.08
2018-07-31T13:17:40.582Z,30.03
2018-07-31T13:18:46.404Z,30.34
2018-07-31T13:19:51.878Z,30.25
2018-07-31T13:20:57.846Z,30.80
2018-07-31T13:22:03.760Z,30.87
2018-07-31T13:23:12.541Z,31.09
2018-07-31T13:24:18.458Z,30.89
2018-07-31T13:25:24.320Z,31.20
2018-07-31T13:26:34.288Z,31.59
2018-07-31T13:27:41.673Z,32.24
2018-07-31T13:28:48.689Z,32.52
2018-07-31T13:29:59.895Z,33.16
2018-07-31T13:31:04.912Z,33.43
2018-07-31T13:32:12.060Z,33.58
2018-07-31T13:33:19.883Z,33.26
2018-07-31T13:34:24.707Z,33.86
2018-07-31T13:35:31.332Z,34.31
2018-07-31T13:36:36.952Z,34.37
2018-07-31T13:37:42.909Z,34.07
2018-07-31T13:38:48.737Z,34.07
2018-07-31T13:39:53.773Z,33.50
2018-07-31T13:40:58.783Z,32.75
2018-07-31T13:42:05.464Z,32.78
2018-07-31T13:43:13.981Z,32.69
2018-07-31T13:44:20.157Z,32.21
2018-07-31T13:45:29.579Z,32.13
2018-07-31T13:46:36.041Z,31.90
2018-07-31T13:47:41.767Z,32.76
2018-07-31T13:48:48.645Z,33.12
2018-07-31T13:49:57.238Z,33.55
2018-07-31T13:51:07.425Z,33.30
2018-07-31T13:52:13.690Z,32.65
2018-07-31T13:53:20.374Z,32.68
2018-07-31T13:54:27.063Z,32.23
2018-07-31T13:55:33.259Z,32.44
2018-07-31T13:56:38.643Z,32.34
2018-07-31T13:57:43.654Z,32.17
2018-07-31T13:58:49.495Z,31.87
2018-07-31T13:59:54.443Z,31.77
2018-07-31T14:01:00.677Z,31.87
2018-07-31T14:02:06.766Z,32.53
2018-07-31T14:03:12.524Z,32.77
2018-07-31T14:04:19.900Z,32.76
2018-07-31T14:05:28.657Z,33.33
2018-07-31T14:06:36.982Z,33.37
2018-07-31T14:07:43.776Z,33.97
2018-07-31T14:08:51.427Z,33.71
2018-07-31T14:10:00.002Z,33.70
2018-07-31T14:11:07.859Z,33.63
2018-07-31T14:12:13.383Z,33.37
2018-07-31T14:13:21.273Z,33.60
2018-07-31T14:14:27.285Z,33.52
2018-07-31T14:15:33.337Z,32.75
2018-07-31T14:16:38.406Z,32.42
2018-07-31T14:17:43.318Z,32.21
2018-07-31T14:18:48.248Z,32.12
2018-07-31T14:19:53.288Z,32.36
2018-07-31T14:21:00.470Z,32.66
2018-07-31T14:22:07.112Z,32.95
2018-07-31T14:23:12.620Z,32.48
2018-07-31T14:24:18.590Z,31.42
2018-07-31T14:25:24.515Z,30.48
2018-07-31T14:26:29.656Z,29.58
2018-07-31T14:27:34.563Z,28.90
2018-07-31T14:28:39.857Z,28.82
2018-07-31T14:29:46.413Z,28.86
2018-07-31T14:30:53.915Z,29.31
2018-07-31T14:31:59.415Z,30.16
2018-07-31T14:51:29.755Z,27.32
2018-07-31T14:52:34.605Z,27.24
2018-07-31T14:53:39.398Z,27.48
2018-07-31T14:54:44.180Z,27.80
2018-07-31T14:55:49.507Z,27.98
2018-07-31T14:56:58.200Z,27.90
2018-07-31T14:58:03.248Z,28.00